Latest Weather Observations for Rabbit Flat

IDD60801

Issued at 6:01 pm CST Monday 31 August 2015 (issued every 30 minutes, with the page automatically refreshed every 10 minutes)

About weather observations | Map of weather stations | Latest weather observations for NT | Other Formats
Station Details ID: 015666 Name: RABBIT FLAT Lat: -20.18 Lon: 130.01 Height: 340.0 m
Data from the previous 72 hours. | See also: Recent months at Rabbit Flat
Date/Time
CST
Temp
°C
App
Temp
°C
Dew
Point
Rel
Hum
%
Delta-T
°C
Wind Press
QNH
hPa
Press
MSL
hPa
Rain
since 9 am
mm
Dir
 
Spd
km/h
Gust
km/h
Spd
kts
Gust
kts
31/06:00pm 30.9 30.4 7.9 23 12.8 CALM 0 0 0 0 1012.6 1011.6 0.0
31/05:30pm 31.5 31.0 7.9 23 13.2 CALM 0 0 0 0 1012.5 - 0.0
31/05:00pm 31.8 31.1 6.9 21 13.7 CALM 0 0 0 0 1012.5 - 0.0
31/04:30pm 31.6 31.0 7.2 21 13.5 CALM 0 0 0 0 1012.8 - 0.0
31/04:00pm 31.1 30.5 7.4 22 13.1 CALM 0 0 0 0 1013.2 - 0.0
31/03:30pm 31.6 30.7 6.2 20 13.8 CALM 0 0 0 0 1013.5 - 0.0
31/03:00pm 31.9 31.2 6.8 21 13.8 CALM 0 0 0 0 1013.8 1012.7 0.0
31/02:30pm 31.5 30.1 3.7 17 14.5 CALM 0 0 0 0 1014.2 - 0.0
31/02:00pm 31.7 30.6 5.1 18 14.2 CALM 0 0 0 0 1014.6 - 0.0
31/01:30pm 31.3 30.0 3.9 17 14.3 CALM 0 0 0 0 1015.1 - 0.0
31/01:00pm 30.2 28.3 0.7 15 14.5 CALM 0 0 0 0 1015.6 - 0.0
31/12:30pm 30.0 28.1 0.6 15 14.4 CALM 0 0 0 0 1016.3 - 0.0
31/12:00pm 28.9 27.0 0.8 16 13.7 CALM 0 0 0 0 1017.0 1016.0 0.0
31/11:30am 29.6 27.7 0.4 15 14.2 CALM 0 0 0 0 1017.5 - 0.0
31/11:00am 27.8 25.9 0.7 17 13.1 CALM 0 0 0 0 1017.8 - 0.0
31/10:30am 26.8 25.0 1.2 19 12.4 CALM 0 0 0 0 1018.1 - 0.0
31/10:00am 25.1 23.2 0.5 20 11.6 CALM 0 0 0 0 1018.0 - 0.0
31/09:30am 24.4 22.7 1.7 22 10.9 CALM 0 0 0 0 1017.9 - 0.0
31/09:00am 22.8 21.1 2.1 25 9.9 CALM 0 0 0 0 1017.3 1016.3 0.0
31/08:30am 22.0 20.5 3.0 28 9.2 CALM 0 0 0 0 1017.1 - 0.0
31/08:00am 20.8 19.6 4.6 34 8.0 CALM 0 0 0 0 1016.9 - 0.0
31/07:30am 20.1 19.1 5.8 39 7.2 CALM 0 0 0 0 1016.8 - 0.0
31/07:00am 19.0 18.3 6.9 45 6.2 CALM 0 0 0 0 1016.5 - 0.0
31/06:30am 19.3 18.7 7.3 45 6.2 CALM 0 0 0 0 1016.3 - 0.0
31/06:00am 18.9 18.3 7.5 47 5.9 CALM 0 0 0 0 1016.3 1015.2 0.0
31/05:30am 18.1 17.7 8.3 52 5.1 CALM 0 0 0 0 1015.7 - 0.0
31/05:00am 18.6 18.5 9.4 55 4.9 CALM 0 0 0 0 1015.4 - 0.0
31/04:30am 19.7 19.5 9.0 50 5.7 CALM 0 0 0 0 1015.5 - 0.0
31/04:00am 20.5 20.1 8.2 45 6.5 CALM 0 0 0 0 1015.7 - 0.0
31/03:30am 20.4 20.0 8.3 45 6.4 CALM 0 0 0 0 1015.7 - 0.0
31/03:00am 21.3 20.8 7.8 41 7.1 CALM 0 0 0 0 1015.9 1014.8 0.0
31/02:30am 21.4 20.8 7.5 40 7.3 CALM 0 0 0 0 1016.0 - 0.0
31/02:00am 21.7 21.2 7.7 40 7.4 CALM 0 0 0 0 1016.2 - 0.0
31/01:30am 21.3 20.9 8.3 43 6.9 CALM 0 0 0 0 1016.4 - 0.0
31/01:00am 22.0 21.6 8.3 41 7.3 CALM 0 0 0 0 1016.8 - 0.0
31/12:30am 22.6 22.2 8.2 39 7.7 CALM 0 0 0 0 1016.9 - 0.0
31/12:00am 23.3 22.8 8.0 37 8.2 CALM 0 0 0 0 1017.2 1016.2 0.0
 
Date/Time
CST
Temp
°C
App
Temp
°C
Dew
Point
Rel
Hum
%
Delta-T
°C
Wind Press
QNH
hPa
Press
MSL
hPa
Rain
since 9 am
mm
Dir
 
Spd
km/h
Gust
km/h
Spd
kts
Gust
kts
30/11:30pm 24.1 23.5 7.6 34 8.8 CALM 0 0 0 0 1017.5 - 0.0
30/11:00pm 24.7 24.1 7.2 32 9.3 CALM 0 0 0 0 1017.7 - 0.0
30/10:30pm 24.7 23.9 6.7 31 9.5 CALM 0 0 0 0 1017.6 - 0.0
30/10:00pm 25.1 24.2 6.2 29 9.9 CALM 0 0 0 0 1017.5 - 0.0
30/09:30pm 25.7 24.8 6.0 28 10.3 CALM 0 0 0 0 1017.4 - 0.0
30/09:00pm 26.2 25.4 6.3 28 10.5 CALM 0 0 0 0 1017.1 1016.1 0.0
30/08:30pm 26.2 25.3 6.0 27 10.6 CALM 0 0 0 0 1016.7 - 0.0
30/08:00pm 25.9 25.1 6.4 28 10.3 CALM 0 0 0 0 1016.5 - 0.0
30/07:30pm 26.6 25.9 7.0 28 10.5 CALM 0 0 0 0 1016.2 - 0.0
30/07:00pm 27.8 26.9 6.2 25 11.5 CALM 0 0 0 0 1015.6 - 0.0
30/06:30pm 29.2 28.2 5.4 22 12.6 CALM 0 0 0 0 1015.5 - 0.0
30/06:00pm 29.8 28.7 5.3 21 13.0 CALM 0 0 0 0 1015.2 1014.2 0.0
30/05:30pm 30.3 29.3 5.6 21 13.2 CALM 0 0 0 0 1015.0 - 0.0
30/05:00pm 30.9 30.0 6.1 21 13.4 CALM 0 0 0 0 1015.1 - 0.0
30/04:30pm 30.9 30.1 6.4 21 13.3 CALM 0 0 0 0 1015.2 - 0.0
30/04:00pm 31.6 29.6 6.2 20 13.8 NNE 6 17 3 9 1015.3 - 0.0
30/03:30pm 31.2 28.8 7.0 22 13.3 NNE 9 19 5 10 1015.4 - 0.0
30/03:00pm 32.2 28.8 6.1 19 14.2 N 13 19 7 10 1015.6 1014.6 0.0
30/02:30pm 30.7 27.1 6.6 22 13.1 NNE 15 20 8 11 1016.2 - 0.0
30/02:00pm 31.1 27.3 7.4 22 13.1 N 17 33 9 18 1016.7 - 0.0
30/01:30pm 30.0 26.1 7.1 23 12.5 ENE 17 28 9 15 1017.2 - 0.0
30/01:00pm 30.4 26.4 6.7 22 12.9 NE 17 30 9 16 1017.7 - 0.0
30/12:30pm 29.1 24.7 7.3 25 11.9 NE 20 33 11 18 1018.2 - 0.0
30/12:00pm 29.1 24.9 8.4 27 11.5 NE 20 32 11 17 1018.7 1017.7 0.0
30/11:30am 28.4 24.1 8.0 27 11.2 NE 20 32 11 17 1019.2 - 0.0
30/11:00am 26.9 22.4 8.6 31 10.1 NE 22 33 12 18 1019.7 - 0.0
30/10:30am 25.8 21.4 8.9 34 9.3 NE 22 32 12 17 1020.1 - 0.0
30/10:00am 25.4 20.9 8.6 34 9.2 NE 22 30 12 16 1020.2 - 0.0
30/09:30am 24.5 20.4 8.7 36 8.6 NE 20 30 11 16 1020.2 - 0.0
30/09:00am 23.1 19.1 9.2 41 7.6 NE 20 28 11 15 1019.9 1018.9 0.0
30/08:30am 21.3 18.4 9.8 48 6.3 NE 15 20 8 11 1019.7 - 0.0
30/08:00am 18.4 17.9 12.0 66 3.6 N 6 7 3 4 1019.5 - 0.0
30/07:30am 15.5 14.6 11.5 77 2.2 NNE 7 9 4 5 1019.0 - 0.0
30/07:00am 13.4 12.2 10.2 81 1.7 NNW 7 9 4 5 1018.5 - 0.0
30/06:30am 13.8 13.9 10.2 79 1.9 CALM 0 0 0 0 1018.3 - 0.0
30/06:00am 13.9 12.8 10.5 80 1.8 NNW 7 9 4 5 1018.0 1017.0 0.0
30/05:30am 14.5 13.3 10.4 76 2.2 E 7 9 4 5 1017.9 - 0.0
30/05:00am 14.6 14.9 10.9 78 2.0 CALM 0 0 0 0 1017.8 - 0.0
30/04:30am 14.7 15.0 10.8 77 2.1 CALM 0 0 0 0 1017.8 - 0.0
30/04:00am 15.0 15.2 10.5 74 2.4 CALM 0 0 0 0 1018.0 - 0.0
30/03:30am 16.1 15.8 11.3 73 2.6 ENE 4 7 2 4 1018.1 - 0.0
30/03:00am 16.6 16.3 11.3 71 2.9 NNE 4 7 2 4 1018.3 1017.3 0.0
30/02:30am 18.1 17.7 12.4 69 3.2 NE 6 9 3 5 1018.6 - 0.0
30/02:00am 19.3 18.7 12.2 63 4.0 NE 7 11 4 6 1018.7 - 0.0
30/01:30am 19.6 18.6 12.4 63 4.1 NE 9 13 5 7 1019.0 - 0.0
30/01:00am 20.0 18.6 12.2 60 4.4 NE 11 13 6 7 1019.2 - 0.0
30/12:30am 19.7 18.8 12.7 64 4.0 ENE 9 11 5 6 1019.5 - 0.0
30/12:00am 20.2 19.3 12.7 62 4.3 ENE 9 11 5 6 1019.4 1018.4 0.0
 
Date/Time
CST
Temp
°C
App
Temp
°C
Dew
Point
Rel
Hum
%
Delta-T
°C
Wind Press
QNH
hPa
Press
MSL
hPa
Rain
since 9 am
mm
Dir
 
Spd
km/h
Gust
km/h
Spd
kts
Gust
kts
29/11:30pm 20.8 20.0 12.8 60 4.6 ENE 9 11 5 6 1019.4 - 0.0
29/11:00pm 21.8 20.5 12.6 56 5.3 E 11 17 6 9 1019.4 - 0.0
29/10:30pm 22.5 21.2 12.6 53 5.7 ENE 11 17 6 9 1019.5 - 0.0
29/10:00pm 22.7 21.5 12.7 53 5.8 ENE 11 15 6 8 1019.5 - 0.0
29/09:30pm 23.1 21.9 12.8 52 6.0 ENE 11 17 6 9 1019.3 - 0.0
29/09:00pm 23.4 21.7 12.5 50 6.3 E 13 20 7 11 1019.0 1017.9 0.0
29/08:30pm 23.7 22.5 12.7 50 6.4 E 11 20 6 11 1018.6 - 0.0
29/08:00pm 24.3 22.6 12.4 47 6.9 E 13 17 7 9 1018.1 - 0.0
29/07:30pm 24.6 22.9 12.6 47 7.0 E 13 20 7 11 1017.8 - 0.0
29/07:00pm 25.1 23.9 12.8 46 7.2 ENE 11 17 6 9 1017.6 - 0.0
29/06:30pm 25.7 24.0 12.6 44 7.7 NE 13 20 7 11 1017.3 - 0.0
29/06:00pm 26.6 24.8 12.2 40 8.4 NE 13 20 7 11 1017.1 1016.1 0.0
29/05:30pm 26.7 25.1 12.8 42 8.2 NE 13 22 7 12 1016.8 - 0.0
29/04:30pm 27.9 26.0 12.9 39 8.9 NE 15 24 8 13 1016.8 - 0.0
29/04:00pm 27.7 25.4 12.9 40 8.8 NE 17 28 9 15 1016.7 - 0.0
29/03:30pm 27.4 25.1 13.1 41 8.5 ENE 17 24 9 13 1017.1 - 0.0
29/03:00pm 27.2 23.9 12.8 41 8.5 NNE 22 32 12 17 1017.5 1016.5 0.0
29/02:30pm 27.0 24.4 13.2 42 8.2 NNE 19 26 10 14 1018.0 - 0.0
29/02:00pm 26.5 24.0 13.4 44 7.8 ENE 19 32 10 17 1018.6 - 0.0
29/01:30pm 25.9 23.1 13.2 45 7.5 NE 20 30 11 16 1019.4 - 0.0
29/01:00pm 25.2 22.5 13.4 48 7.0 NE 20 30 11 16 1019.9 - 0.0
29/12:30pm 24.3 21.4 13.0 49 6.6 NE 20 33 11 18 1020.5 - 0.0
29/12:00pm 24.1 21.4 13.0 50 6.5 ENE 19 30 10 16 1021.1 1020.1 0.0
29/11:30am 22.8 19.6 13.2 54 5.6 NE 22 32 12 17 1021.5 - 0.0
29/11:00am 21.5 18.3 13.0 58 4.9 NE 22 30 12 16 1021.8 - 0.0
29/10:30am 20.9 18.1 13.1 61 4.5 NE 20 30 11 16 1022.1 - 0.0
29/10:00am 20.5 17.7 13.2 63 4.2 ENE 20 28 11 15 1022.2 - 0.0
29/09:30am 20.2 18.8 13.3 64 4.0 ENE 13 20 7 11 1022.3 - 0.0
29/09:00am 19.2 17.7 13.1 68 3.5 ENE 13 22 7 12 1021.7 1020.8 0.0
29/08:30am 18.6 16.8 13.2 71 3.1 ENE 15 24 8 13 1021.1 - 0.0
29/08:00am 17.9 17.3 13.5 75 2.5 ENE 9 15 5 8 1021.0 - 0.0
29/07:30am 17.3 17.2 13.8 80 2.0 ENE 7 11 4 6 1020.7 - 0.0
29/07:00am 17.1 16.9 13.6 80 2.0 ENE 7 11 4 6 1020.3 - 0.0
29/06:30am 16.7 17.1 13.7 82 1.7 SSW 4 6 2 3 1020.3 - 0.0
29/06:00am 16.7 17.1 13.7 82 1.7 SSW 4 6 2 3 1020.0 1019.0 0.0
29/05:30am 17.0 16.4 13.5 80 2.0 S 9 11 5 6 1019.9 - 0.0
29/05:00am 17.5 17.5 13.7 78 2.2 ENE 6 9 3 5 1019.2 - 0.0
29/04:30am 17.9 17.0 13.7 76 2.4 ENE 11 13 6 7 1019.0 - 0.0
29/04:00am 18.3 17.8 13.8 75 2.6 NE 9 17 5 9 1019.3 - 0.0
29/03:30am 18.3 17.4 13.8 75 2.6 E 11 17 6 9 1018.7 - 0.0
29/03:00am 18.4 16.8 13.9 75 2.6 ENE 15 26 8 14 1018.7 1017.7 0.0
29/02:30am 18.2 18.0 14.8 80 2.0 NE 9 13 5 7 1020.1 - 0.0
29/02:00am 19.1 18.5 13.6 70 3.2 NNE 9 17 5 9 1020.7 - 0.0
29/01:30am 18.8 16.8 14.0 73 2.8 ENE 17 26 9 14 1019.9 - 0.0
29/01:00am 19.5 17.8 13.6 68 3.4 ENE 15 26 8 14 1020.1 - 0.0
29/12:30am 19.7 17.3 13.9 69 3.4 ENE 19 28 10 15 1020.2 - 0.0
29/12:00am 20.0 18.6 14.6 71 3.2 ENE 15 22 8 12 1020.3 1019.3 0.0
 
Date/Time
CST
Temp
°C
App
Temp
°C
Dew
Point
Rel
Hum
%
Delta-T
°C
Wind Press
QNH
hPa
Press
MSL
hPa
Rain
since 9 am
mm
Dir
 
Spd
km/h
Gust
km/h
Spd
kts
Gust
kts
28/11:30pm 20.4 18.6 14.5 69 3.5 ENE 17 26 9 14 1020.4 - 0.0
28/11:00pm 20.5 18.7 14.4 68 3.6 ENE 17 26 9 14 1020.0 - 0.0
28/10:30pm 20.8 19.7 14.4 67 3.8 NE 13 20 7 11 1020.9 - 0.0
28/10:00pm 20.9 20.3 14.5 67 3.8 ENE 11 17 6 9 1020.7 - 0.0
28/09:30pm 21.1 19.7 14.5 66 3.9 ENE 15 28 8 15 1020.2 - 0.0
28/09:00pm 21.3 19.9 14.6 65 4.0 E 15 22 8 12 1019.7 1018.7 0.0
28/08:30pm 21.5 19.7 14.4 64 4.2 ENE 17 26 9 14 1019.1 - 0.0
28/08:00pm 21.7 20.0 14.7 64 4.2 ENE 17 26 9 14 1018.6 - 0.0
28/07:30pm 21.6 19.5 14.7 65 4.1 E 19 28 10 15 1018.1 - 0.0
28/07:00pm 22.1 21.1 14.7 63 4.4 ENE 13 19 7 10 1018.2 - 0.0
28/06:30pm 22.4 21.1 14.7 61 4.6 E 15 24 8 13 1018.1 - 0.0

Other Formats:

Comma delimited format used in spreadsheet applications
http://www.bom.gov.au/fwo/IDD60801/IDD60801.95322.axf

JavaScript Object Notation format (JSON) in row-major order
http://www.bom.gov.au/fwo/IDD60801/IDD60801.95322.json